Time;durP1;ratioP1;P1;durP2;ratioP2;P2;SDS_P1;SDS_P2;PMS_P1;PMS_P2;Temp;Humidity;BMP_temperature;BMP_pressure;BME280_temperature;BME280_humidity;BME280_pressure;Samples;Min_cycle;Max_cycle;Signal;HPM_P1;HPM_P2
2021/03/04 00:02:15;;;;;;;63.50;37.85;;;153.70;1817.60;;;;;;4912228;29;20032;-75
2021/03/04 00:04:41;;;;;;;63.70;39.03;;;153.60;1843.20;;;;;;4926435;29;20036;-75
2021/03/04 00:07:06;;;;;;;68.45;39.88;;;153.60;1843.20;;;;;;4925752;29;20040;-75
2021/03/04 00:09:32;;;;;;;64.65;36.78;;;153.60;1843.20;;;;;;4913227;29;20028;-75
2021/03/04 00:11:58;;;;;;;67.10;36.95;;;128.90;1843.20;;;;;;4909147;29;20036;-75
2021/03/04 00:14:23;;;;;;;57.45;34.45;;;128.90;1843.20;;;;;;4910216;29;20362;-74
2021/03/04 00:16:49;;;;;;;57.03;33.90;;;128.90;1843.20;;;;;;4913858;29;20075;-74
2021/03/04 00:19:15;;;;;;;52.25;31.80;;;128.90;1843.20;;;;;;4917718;29;20115;-74
2021/03/04 00:21:41;;;;;;;56.22;31.25;;;128.80;1843.20;;;;;;4910959;29;20035;-75
2021/03/04 00:24:07;;;;;;;52.85;31.45;;;128.80;1843.20;;;;;;4919458;29;20032;-73
2021/03/04 00:26:34;;;;;;;55.97;32.78;;;128.80;1843.20;;;;;;4915547;29;20032;-74
2021/03/04 00:29:00;;;;;;;51.47;30.90;;;128.80;1843.20;;;;;;4904457;29;20482;-73
2021/03/04 00:31:25;;;;;;;46.53;27.30;;;128.80;1843.20;;;;;;4916232;29;20533;-74
2021/03/04 00:33:51;;;;;;;54.97;33.90;;;128.80;1843.20;;;;;;4912023;29;20072;-75
2021/03/04 00:36:17;;;;;;;56.42;32.45;;;128.80;1843.20;;;;;;4909190;29;20036;-74
2021/03/04 00:38:43;;;;;;;63.58;33.15;;;128.80;1843.20;;;;;;4923409;29;20039;-74
2021/03/04 00:41:08;;;;;;;58.17;35.05;;;128.70;1843.20;;;;;;4894930;29;20084;-74
2021/03/04 00:43:34;;;;;;;49.88;28.75;;;128.60;1868.80;;;;;;4921281;29;20036;-75
2021/03/04 00:46:00;;;;;;;44.55;26.63;;;128.60;1843.20;;;;;;4912875;29;20027;-74
2021/03/04 00:48:26;;;;;;;43.42;27.13;;;128.60;1868.80;;;;;;4920147;29;20445;-74
2021/03/04 00:50:51;;;;;;;48.60;27.65;;;128.50;1868.80;;;;;;4927677;29;20107;-74
2021/03/04 00:53:17;;;;;;;52.53;31.42;;;128.50;1868.80;;;;;;4917822;29;20084;-75
2021/03/04 00:55:43;;;;;;;50.33;28.90;;;128.50;1868.80;;;;;;4932486;29;20019;-75
2021/03/04 00:58:09;;;;;;;41.03;24.92;;;128.40;1868.80;;;;;;4926642;29;20377;-75
2021/03/04 01:00:34;;;;;;;42.80;26.58;;;128.30;1868.80;;;;;;4906628;29;20040;-75
2021/03/04 01:03:00;;;;;;;48.30;27.58;;;128.30;1894.40;;;;;;4902852;28;20499;-76
2021/03/04 01:05:27;;;;;;;57.25;31.05;;;128.30;1894.40;;;;;;4904076;29;20032;-75
2021/03/04 01:07:52;;;;;;;53.25;31.83;;;128.30;1894.40;;;;;;4936261;29;20032;-75
2021/03/04 01:10:32;;;;;;;54.40;32.22;;;128.30;1894.40;;;;;;4924825;29;20144;-75
2021/03/04 01:12:57;;;;;;;56.40;32.25;;;128.20;1894.40;;;;;;4912154;29;20102;-76
2021/03/04 01:15:23;;;;;;;47.83;29.98;;;128.20;1894.40;;;;;;4916605;29;20481;-74
2021/03/04 01:17:49;;;;;;;46.08;27.10;;;128.20;1920.00;;;;;;4923779;29;20389;-75
2021/03/04 01:20:17;;;;;;;44.40;26.33;;;128.10;1920.00;;;;;;4926054;29;20024;-74
2021/03/04 01:22:43;;;;;;;41.35;24.92;;;128.20;1920.00;;;;;;4916615;29;20028;-75
2021/03/04 01:25:10;;;;;;;43.38;24.88;;;128.20;1920.00;;;;;;4917091;29;20031;-74
2021/03/04 01:27:38;;;;;;;48.78;26.42;;;128.10;1920.00;;;;;;4931425;29;20110;-75
2021/03/04 01:30:07;;;;;;;47.65;26.23;;;128.10;1920.00;;;;;;4929136;29;20107;-74
2021/03/04 01:32:33;;;;;;;49.88;28.67;;;128.00;1945.60;;;;;;4930718;29;20075;-74
2021/03/04 01:34:59;;;;;;;51.33;30.30;;;128.00;1945.60;;;;;;4919873;29;20497;-74
2021/03/04 01:37:25;;;;;;;62.22;31.10;;;103.20;1920.00;;;;;;4928598;29;20083;-73
2021/03/04 01:39:51;;;;;;;52.08;30.30;;;103.20;1945.60;;;;;;4931403;29;20032;-73
2021/03/04 01:42:17;;;;;;;48.05;29.73;;;103.20;1945.60;;;;;;4916253;29;20691;-74
2021/03/04 01:44:42;;;;;;;54.85;30.25;;;103.20;1945.60;;;;;;4930641;29;20034;-74
2021/03/04 01:47:08;;;;;;;45.83;28.65;;;103.20;1945.60;;;;;;4932219;29;20095;-75
2021/03/04 01:49:35;;;;;;;49.72;28.33;;;103.10;1945.60;;;;;;4917156;29;20507;-74
2021/03/04 01:52:01;;;;;;;45.08;27.42;;;103.10;1971.20;;;;;;4913448;29;20436;-74
2021/03/04 01:54:27;;;;;;;47.65;26.45;;;103.20;1971.20;;;;;;4905904;29;20036;-73
2021/03/04 01:56:53;;;;;;;42.25;26.55;;;103.10;1945.60;;;;;;4950763;29;20024;-74
2021/03/04 01:59:19;;;;;;;43.67;28.35;;;103.20;1945.60;;;;;;4923725;29;20090;-74
2021/03/04 02:01:45;;;;;;;41.83;27.27;;;103.20;1945.60;;;;;;4936131;29;20436;-74
2021/03/04 02:04:11;;;;;;;43.78;28.30;;;103.20;1945.60;;;;;;4917742;29;20032;-74
2021/03/04 02:06:44;;;;;;;47.90;27.98;;;103.20;1971.20;;;;;;4917604;29;20025;-74
2021/03/04 02:09:11;;;;;;;45.15;26.10;;;103.20;1945.60;;;;;;4930991;29;20016;-74
2021/03/04 02:11:49;;;;;;;42.83;25.17;;;103.20;1945.60;;;;;;4936085;29;20024;-74
2021/03/04 02:14:32;;;;;;;50.90;28.17;;;103.20;1945.60;;;;;;4921201;29;20075;-74
2021/03/04 02:17:06;;;;;;;47.70;27.95;;;103.20;1920.00;;;;;;4950705;29;20123;-74
2021/03/04 02:19:55;;;;;;;49.85;28.13;;;103.30;1945.60;;;;;;4935608;29;20090;-74
2021/03/04 02:22:23;;;;;;;62.20;33.92;;;103.20;1945.60;;;;;;4936392;29;20060;-74
2021/03/04 02:24:57;;;;;;;50.33;28.63;;;103.20;1945.60;;;;;;4909609;29;20416;-74
2021/03/04 02:27:28;;;;;;;48.20;29.50;;;103.10;1945.60;;;;;;4935925;29;20032;-74
2021/03/04 02:30:03;;;;;;;43.47;25.70;;;103.00;1945.60;;;;;;4903769;29;20067;-74
2021/03/04 02:32:30;;;;;;;41.38;24.88;;;102.90;1945.60;;;;;;4916691;29;20032;-74
2021/03/04 02:35:35;;;;;;;40.08;28.05;;;102.70;1945.60;;;;;;4916585;29;20052;-75
2021/03/04 02:38:13;;;;;;;43.28;26.35;;;102.70;1971.20;;;;;;4919433;29;20111;-74
2021/03/04 02:40:41;;;;;;;45.55;28.92;;;102.70;1945.60;;;;;;4918966;29;20039;-74
2021/03/04 02:43:11;;;;;;;40.78;25.73;;;102.70;1945.60;;;;;;4934209;29;20036;-74
2021/03/04 02:45:37;;;;;;;41.67;25.83;;;102.80;1945.60;;;;;;4935374;29;20031;-74
2021/03/04 02:48:05;;;;;;;43.90;26.80;;;102.80;1945.60;;;;;;4918358;29;20100;-74
2021/03/04 02:50:31;;;;;;;43.30;26.63;;;102.80;1920.00;;;;;;4916871;29;20060;-74
2021/03/04 02:52:57;;;;;;;46.20;24.98;;;102.80;1945.60;;;;;;4914678;29;20035;-74
2021/03/04 02:55:25;;;;;;;46.05;26.92;;;102.80;1945.60;;;;;;4915392;29;20048;-74
2021/03/04 02:57:52;;;;;;;46.58;27.52;;;102.80;1945.60;;;;;;4930601;29;20019;-74
2021/03/04 03:00:21;;;;;;;42.78;26.52;;;102.90;1920.00;;;;;;4907482;29;20028;-74
2021/03/04 03:02:48;;;;;;;56.35;31.38;;;102.90;1920.00;;;;;;4935321;29;20031;-75
2021/03/04 03:05:16;;;;;;;55.75;30.52;;;102.80;1945.60;;;;;;4934952;29;20031;-75
2021/03/04 03:07:43;;;;;;;48.40;29.70;;;102.80;1945.60;;;;;;4906093;29;20032;-74
2021/03/04 03:10:11;;;;;;;48.35;30.20;;;102.80;1945.60;;;;;;4916014;29;20028;-74
2021/03/04 03:12:39;;;;;;;58.15;31.73;;;102.70;1945.60;;;;;;4915025;29;20035;-75
2021/03/04 03:15:10;;;;;;;65.07;32.83;;;102.70;1945.60;;;;;;4898107;29;20480;-74
2021/03/04 03:17:37;;;;;;;52.03;32.25;;;102.70;1945.60;;;;;;4931523;29;20054;-74
2021/03/04 03:20:08;;;;;;;59.28;32.67;;;102.70;1945.60;;;;;;4927008;29;20429;-74
2021/03/04 03:22:34;;;;;;;59.90;35.63;;;102.80;1945.60;;;;;;4911973;29;20040;-74
2021/03/04 03:25:00;;;;;;;61.38;34.33;;;102.70;1945.60;;;;;;4922845;29;20047;-74
2021/03/04 03:27:26;;;;;;;56.30;35.80;;;102.80;1971.20;;;;;;4922253;29;20111;-75
2021/03/04 03:29:52;;;;;;;58.80;36.25;;;102.80;1945.60;;;;;;4915793;29;20028;-75
2021/03/04 03:32:20;;;;;;;63.45;36.67;;;102.90;1971.20;;;;;;4924829;29;20105;-74
2021/03/04 03:34:46;;;;;;;58.70;35.00;;;103.00;1945.60;;;;;;4917158;29;20118;-74
2021/03/04 03:37:12;;;;;;;62.70;38.55;;;103.00;1945.60;;;;;;4915881;29;20044;-74
2021/03/04 03:39:40;;;;;;;73.95;40.75;;;103.10;1945.60;;;;;;4918807;29;20531;-74
2021/03/04 03:42:07;;;;;;;68.90;40.05;;;103.10;1971.20;;;;;;4923929;29;20078;-74
2021/03/04 03:44:33;;;;;;;68.07;40.00;;;103.00;1971.20;;;;;;4925007;29;20036;-74
2021/03/04 03:47:02;;;;;;;60.75;38.05;;;103.10;1945.60;;;;;;4920866;29;20020;-73
2021/03/04 03:49:28;;;;;;;71.53;42.72;;;103.00;1945.60;;;;;;4933305;29;20131;-75
2021/03/04 03:51:55;;;;;;;71.57;43.03;;;103.00;1971.20;;;;;;4906634;29;20107;-75
2021/03/04 03:54:21;;;;;;;76.82;43.90;;;103.00;1971.20;;;;;;4915418;29;20032;-75
2021/03/04 03:56:47;;;;;;;63.25;40.80;;;103.10;1971.20;;;;;;4923604;29;20741;-74
2021/03/04 03:59:13;;;;;;;63.80;40.70;;;103.00;1971.20;;;;;;4920862;29;20032;-74
2021/03/04 04:01:40;;;;;;;73.95;42.58;;;103.10;1945.60;;;;;;4927149;29;20028;-74
2021/03/04 04:04:06;;;;;;;68.47;39.38;;;103.10;1945.60;;;;;;4914144;29;20040;-74
2021/03/04 04:06:32;;;;;;;69.28;40.40;;;103.10;1945.60;;;;;;4922687;29;20552;-74
2021/03/04 04:08:59;;;;;;;63.95;40.25;;;103.10;1945.60;;;;;;4906086;29;20029;-75
2021/03/04 04:11:26;;;;;;;74.90;44.03;;;103.10;1971.20;;;;;;4918444;29;20504;-74
2021/03/04 04:13:53;;;;;;;90.07;50.92;;;103.10;1971.20;;;;;;4907795;29;20072;-74
2021/03/04 04:16:19;;;;;;;78.88;49.80;;;103.10;1971.20;;;;;;4911243;29;20043;-75
2021/03/04 04:18:46;;;;;;;75.72;45.85;;;103.00;1945.60;;;;;;4922164;29;20043;-74
2021/03/04 04:21:12;;;;;;;81.50;47.25;;;103.00;1971.20;;;;;;4898546;29;20435;-74
2021/03/04 04:23:39;;;;;;;77.47;50.47;;;103.00;1945.60;;;;;;4927223;29;20028;-74
2021/03/04 04:26:05;;;;;;;73.25;48.80;;;102.90;1971.20;;;;;;4918241;29;20024;-75
2021/03/04 04:28:31;;;;;;;80.07;49.20;;;102.90;1971.20;;;;;;4918839;29;20030;-75
2021/03/04 04:30:56;;;;;;;83.50;49.30;;;102.90;1971.20;;;;;;4915836;29;20039;-75
2021/03/04 04:33:22;;;;;;;88.78;49.13;;;102.90;1971.20;;;;;;4912537;29;20064;-76
2021/03/04 04:35:48;;;;;;;81.70;47.72;;;102.90;1971.20;;;;;;4915458;29;20028;-76
2021/03/04 04:38:14;;;;;;;77.53;44.90;;;102.90;1971.20;;;;;;4909456;29;20032;-76
2021/03/04 04:40:40;;;;;;;79.03;42.20;;;102.90;1971.20;;;;;;4917781;29;20044;-75
2021/03/04 04:43:06;;;;;;;83.05;42.25;;;102.80;1945.60;;;;;;4924909;29;20063;-75
2021/03/04 04:45:32;;;;;;;73.70;40.25;;;102.70;1945.60;;;;;;4934321;29;20032;-75
2021/03/04 04:47:59;;;;;;;82.97;44.05;;;102.60;1971.20;;;;;;4917373;29;20084;-76
2021/03/04 04:50:24;;;;;;;81.85;43.20;;;102.60;1945.60;;;;;;4920120;29;20027;-77
2021/03/04 04:52:50;;;;;;;86.53;47.75;;;102.60;1971.20;;;;;;4922146;29;20441;-76
2021/03/04 04:55:16;;;;;;;73.85;45.03;;;102.50;1945.60;;;;;;4918745;29;20527;-76
2021/03/04 04:57:42;;;;;;;72.55;42.20;;;102.40;1971.20;;;;;;4909409;29;20046;-76
2021/03/04 05:00:09;;;;;;;80.43;42.78;;;102.40;1945.60;;;;;;4918361;29;20107;-76
2021/03/04 05:02:35;;;;;;;76.35;41.28;;;102.40;1971.20;;;;;;4907744;29;20079;-75
2021/03/04 05:05:04;;;;;;;72.57;39.85;;;77.70;1971.20;;;;;;4935994;29;20055;-76
2021/03/04 05:07:29;;;;;;;72.95;40.63;;;77.70;1971.20;;;;;;4923995;29;20028;-76
2021/03/04 05:09:55;;;;;;;82.63;47.55;;;77.60;1971.20;;;;;;4927227;29;20028;-77
2021/03/04 05:12:21;;;;;;;90.28;51.22;;;77.50;1996.80;;;;;;4917257;29;20107;-75
2021/03/04 05:14:48;;;;;;;92.78;55.65;;;77.60;2022.40;;;;;;4927847;29;20032;-75
2021/03/04 05:17:13;;;;;;;115.18;64.95;;;77.70;1996.80;;;;;;4901797;29;20025;-75
2021/03/04 05:19:39;;;;;;;111.78;65.63;;;77.70;1971.20;;;;;;4929738;29;20086;-75
2021/03/04 05:22:05;;;;;;;112.53;69.57;;;77.60;1996.80;;;;;;4900948;29;20498;-75
2021/03/04 05:24:31;;;;;;;99.10;64.15;;;77.70;1996.80;;;;;;4921958;29;20031;-76
2021/03/04 05:26:56;;;;;;;97.00;57.75;;;77.70;1996.80;;;;;;4919971;29;20083;-75
2021/03/04 05:29:22;;;;;;;101.18;58.15;;;102.40;1996.80;;;;;;4937056;29;20051;-75
2021/03/04 05:31:48;;;;;;;97.90;57.03;;;102.40;1971.20;;;;;;4936978;29;20087;-75
2021/03/04 05:34:14;;;;;;;99.78;59.08;;;102.40;1971.20;;;;;;4919978;29;20127;-76
2021/03/04 05:36:40;;;;;;;99.60;55.50;;;102.40;1971.20;;;;;;4904148;29;20035;-77
2021/03/04 05:39:06;;;;;;;100.07;57.08;;;102.40;1971.20;;;;;;4924668;29;20028;-76
2021/03/04 05:41:33;;;;;;;94.53;53.58;;;102.40;1971.20;;;;;;4913766;29;20039;-75
2021/03/04 05:43:59;;;;;;;97.55;55.22;;;102.50;1971.20;;;;;;4923584;29;20094;-76
2021/03/04 05:46:25;;;;;;;99.57;56.78;;;102.40;1971.20;;;;;;4915378;29;20071;-76
2021/03/04 05:48:51;;;;;;;102.55;53.67;;;102.60;1996.80;;;;;;4951495;29;20027;-77
2021/03/04 05:51:26;;;;;;;96.32;55.40;;;102.60;1971.20;;;;;;4914901;29;20035;-76
2021/03/04 05:54:04;;;;;;;91.88;54.63;;;102.70;1945.60;;;;;;4924605;29;20044;-75
2021/03/04 05:56:30;;;;;;;99.05;53.42;;;102.70;1945.60;;;;;;4936324;29;20023;-76
2021/03/04 05:58:58;;;;;;;82.78;49.33;;;102.70;1945.60;;;;;;4936484;29;20043;-75
2021/03/04 06:01:25;;;;;;;94.60;50.67;;;102.70;1945.60;;;;;;4920880;29;20466;-75
2021/03/04 06:03:51;;;;;;;101.72;52.85;;;102.80;1945.60;;;;;;4900879;29;20044;-75
2021/03/04 06:06:16;;;;;;;98.65;54.47;;;102.90;1945.60;;;;;;4924201;29;20059;-75
2021/03/04 06:08:42;;;;;;;100.70;58.72;;;102.90;1971.20;;;;;;4911221;29;20060;-75
2021/03/04 06:11:08;;;;;;;108.00;62.70;;;102.90;1996.80;;;;;;4923148;29;20032;-76
2021/03/04 06:13:34;;;;;;;105.43;64.47;;;103.00;1996.80;;;;;;4935794;29;20094;-76
2021/03/04 06:16:00;;;;;;;108.25;68.35;;;103.00;1996.80;;;;;;4918999;29;20051;-76
2021/03/04 06:18:41;;;;;;;120.60;69.47;;;103.10;2022.40;;;;;;4925316;29;20020;-76
2021/03/04 06:21:26;;;;;;;106.28;66.03;;;103.20;2022.40;;;;;;4928365;29;20389;-76
2021/03/04 06:23:53;;;;;;;95.75;56.42;;;103.10;2022.40;;;;;;4923243;29;20038;-76
2021/03/04 06:26:36;;;;;;;84.25;54.45;;;103.00;2048.00;;;;;;4897626;29;20097;-76
2021/03/04 06:29:15;;;;;;;86.70;52.88;;;103.00;2048.00;;;;;;4901626;29;20195;-75
2021/03/04 06:31:41;;;;;;;79.68;51.08;;;103.00;2048.00;;;;;;4899827;29;20449;-76
2021/03/04 06:34:21;;;;;;;88.65;53.42;;;102.90;2048.00;;;;;;4899908;29;20055;-75
2021/03/04 06:36:57;;;;;;;90.50;49.63;;;102.90;2048.00;;;;;;4899923;29;20048;-76
2021/03/04 06:39:24;;;;;;;83.45;49.72;;;102.90;2048.00;;;;;;4899660;29;20035;-76
2021/03/04 06:42:04;;;;;;;85.05;49.05;;;103.10;2048.00;;;;;;4915948;29;20039;-76
2021/03/04 06:44:44;;;;;;;75.43;46.72;;;103.10;2022.40;;;;;;4914256;29;20047;-75
2021/03/04 06:47:11;;;;;;;80.00;48.78;;;103.20;2022.40;;;;;;4915849;29;20371;-75
2021/03/04 06:49:38;;;;;;;93.72;52.67;;;103.30;1996.80;;;;;;4920692;29;20026;-75
2021/03/04 06:52:04;;;;;;;87.07;51.05;;;128.00;1971.20;;;;;;4924901;29;20071;-76
2021/03/04 06:54:30;;;;;;;83.47;49.78;;;128.20;1945.60;;;;;;4921357;29;20087;-76
2021/03/04 06:57:07;;;;;;;86.53;50.35;;;128.30;1945.60;;;;;;4916081;29;20401;-75
2021/03/04 06:59:39;;;;;;;86.97;50.92;;;128.30;1945.60;;;;;;4926669;29;20036;-77
2021/03/04 07:02:06;;;;;;;91.53;52.13;;;128.50;1920.00;;;;;;4918217;29;20099;-76
2021/03/04 07:04:32;;;;;;;99.15;55.20;;;128.60;1894.40;;;;;;4911148;29;20123;-75
2021/03/04 07:07:00;;;;;;;87.80;55.08;;;128.90;1894.40;;;;;;4909709;29;20112;-76
2021/03/04 07:09:27;;;;;;;89.20;52.47;;;153.70;1868.80;;;;;;4909436;29;20028;-75
2021/03/04 07:11:54;;;;;;;104.18;55.25;;;153.60;1843.20;;;;;;4912368;29;20028;-75
2021/03/04 07:14:21;;;;;;;90.65;54.47;;;153.70;1868.80;;;;;;4923304;29;20767;-75
2021/03/04 07:16:48;;;;;;;96.63;54.95;;;153.60;1843.20;;;;;;4912806;29;20476;-75
2021/03/04 07:19:16;;;;;;;94.00;57.17;;;153.70;1843.20;;;;;;4908110;29;20035;-75
2021/03/04 07:21:47;;;;;;;93.07;56.20;;;153.80;1843.20;;;;;;4908792;29;20036;-76
2021/03/04 07:24:13;;;;;;;93.90;57.10;;;154.00;1817.60;;;;;;4911575;29;20036;-75
2021/03/04 07:26:40;;;;;;;98.82;58.35;;;154.20;1843.20;;;;;;4907673;29;20024;-76
2021/03/04 07:29:10;;;;;;;93.35;55.80;;;154.40;1792.00;;;;;;4910781;29;20107;-76
2021/03/04 07:31:43;;;;;;;94.05;56.65;;;154.40;1792.00;;;;;;4918122;29;20025;-76
2021/03/04 07:34:13;;;;;;;92.22;55.13;;;179.20;1792.00;;;;;;4898301;29;20075;-74
2021/03/04 07:36:40;;;;;;;97.78;57.78;;;179.20;1766.40;;;;;;4926639;29;20047;-75
2021/03/04 07:39:06;;;;;;;97.40;59.92;;;179.30;1792.00;;;;;;4921250;29;20489;-74
2021/03/04 07:41:43;;;;;;;95.20;61.03;;;179.70;1740.80;;;;;;4900541;29;20123;-75
2021/03/04 07:44:09;;;;;;;;;;;180.00;1715.20;;;;;;4897015;29;20489;-75
2021/03/04 07:46:44;;;;;;;112.93;62.08;;;180.00;1715.20;;;;;;4905537;29;19908;-75
2021/03/04 07:49:10;;;;;;;101.78;63.00;;;180.00;1715.20;;;;;;4904270;29;20039;-74
2021/03/04 07:51:47;;;;;;;102.90;64.95;;;180.10;1715.20;;;;;;4910886;29;20029;-75
2021/03/04 07:54:25;;;;;;;106.38;62.85;;;205.00;1689.60;;;;;;4904097;29;20040;-76
2021/03/04 07:57:11;;;;;;;140.55;78.63;;;205.10;1664.00;;;;;;4901553;29;20131;-77
2021/03/04 07:59:55;;;;;;;129.57;75.50;;;205.30;1664.00;;;;;;4908107;29;20057;-76
2021/03/04 08:02:42;;;;;;;114.95;68.95;;;205.40;1638.40;;;;;;4909495;29;20081;-77
2021/03/04 08:05:15;;;;;;;;;;;230.40;1612.80;;;;;;4926757;29;20032;-74
2021/03/04 08:07:42;;;;;;;105.22;65.60;;;230.60;1587.20;;;;;;4905657;29;19957;-76
2021/03/04 08:10:08;;;;;;;96.50;64.15;;;230.70;1587.20;;;;;;4898787;29;20027;-77
2021/03/04 08:12:58;;;;;;;103.05;61.55;;;230.90;1561.60;;;;;;4908258;29;20032;-76
2021/03/04 08:15:45;;;;;;;97.13;61.33;;;231.20;1561.60;;;;;;4897687;29;20036;-77
2021/03/04 08:18:26;;;;;;;93.00;59.28;;;256.10;1536.00;;;;;;4898367;29;20477;-77
2021/03/04 08:20:53;;;;;;;82.72;53.80;;;256.20;1510.40;;;;;;4909271;29;20039;-77
2021/03/04 08:23:20;;;;;;;100.63;60.13;;;256.10;1510.40;;;;;;4910664;29;20024;-76
2021/03/04 08:25:47;;;;;;;80.38;55.97;;;256.50;1484.80;;;;;;4909267;29;20500;-76
2021/03/04 08:28:23;;;;;;;93.90;60.80;;;256.50;1484.80;;;;;;4900680;29;20035;-75
2021/03/04 08:30:50;;;;;;;92.38;58.88;;;256.50;1484.80;;;;;;4907997;29;20032;-76
2021/03/04 08:33:16;;;;;;;86.80;58.65;;;256.90;1484.80;;;;;;4907358;29;20095;-76
2021/03/04 08:35:45;;;;;;;82.72;53.55;;;281.60;1536.00;;;;;;4910873;29;20060;-76
2021/03/04 08:38:14;;;;;;;74.82;52.85;;;281.70;1484.80;;;;;;4911389;29;20478;-76
2021/03/04 08:40:46;;;;;;;83.53;52.83;;;281.90;1484.80;;;;;;4905979;29;20032;-76
2021/03/04 08:43:18;;;;;;;85.43;55.85;;;282.00;1484.80;;;;;;4906042;29;20032;-76
2021/03/04 08:45:45;;;;;;;85.95;52.80;;;282.10;1484.80;;;;;;4898770;29;20111;-76
2021/03/04 08:48:13;;;;;;;94.38;55.30;;;282.40;1484.80;;;;;;4910079;29;20031;-76
2021/03/04 08:50:44;;;;;;;82.88;53.15;;;307.40;1484.80;;;;;;4909743;29;20516;-76
2021/03/04 08:53:18;;;;;;;77.90;48.85;;;307.70;1459.20;;;;;;4894408;29;20477;-75
2021/03/04 08:55:55;;;;;;;79.65;51.75;;;307.90;1408.00;;;;;;4914003;29;20124;-77
2021/03/04 08:58:23;;;;;;;83.07;49.97;;;332.80;1433.60;;;;;;4905663;29;20024;-76
2021/03/04 09:00:50;;;;;;;73.88;46.00;;;333.10;1408.00;;;;;;4909147;29;20056;-76
2021/03/04 09:03:16;;;;;;;79.32;46.13;;;333.10;1356.80;;;;;;4908650;29;20500;-77
2021/03/04 09:05:42;;;;;;;70.28;46.55;;;333.20;1356.80;;;;;;4904089;29;20033;-76
2021/03/04 09:08:13;;;;;;;78.80;45.97;;;333.50;1331.20;;;;;;4911421;29;20032;-76
2021/03/04 09:10:43;;;;;;;64.07;42.50;;;333.70;1331.20;;;;;;4908011;29;20389;-76
2021/03/04 09:13:10;;;;;;;60.33;38.97;;;358.40;1305.60;;;;;;4910269;29;20099;-76
2021/03/04 09:15:36;;;;;;;56.42;37.90;;;358.60;1280.00;;;;;;4919552;29;20024;-72
2021/03/04 09:18:09;;;;;;;53.72;37.60;;;358.80;1280.00;;;;;;4912240;29;20465;-73
2021/03/04 09:20:35;;;;;;;52.08;36.25;;;358.90;1280.00;;;;;;4923188;29;20886;-72
2021/03/04 09:23:02;;;;;;;54.63;36.17;;;359.10;1254.40;;;;;;4925345;29;20056;-74
2021/03/04 09:25:28;;;;;;;54.20;36.15;;;359.20;1254.40;;;;;;4911190;29;20146;-72
2021/03/04 09:27:54;;;;;;;53.53;34.97;;;359.30;1254.40;;;;;;4927418;29;20028;-72
2021/03/04 09:30:28;;;;;;;41.20;30.27;;;384.20;1228.80;;;;;;4928567;29;20503;-72
2021/03/04 09:32:56;;;;;;;57.40;37.55;;;384.20;1177.60;;;;;;4915129;29;20079;-73
2021/03/04 09:35:22;;;;;;;46.83;33.42;;;384.40;1203.20;;;;;;4912895;29;20051;-72
2021/03/04 09:37:48;;;;;;;52.40;33.72;;;384.60;1177.60;;;;;;4930620;29;20403;-72
2021/03/04 09:40:25;;;;;;;48.75;32.60;;;384.90;1152.00;;;;;;4934774;29;20110;-72
2021/03/04 09:42:51;;;;;;;59.15;32.88;;;409.60;1152.00;;;;;;4916692;29;20029;-72
2021/03/04 09:45:17;;;;;;;43.45;32.17;;;409.80;1152.00;;;;;;4928217;29;20039;-72
2021/03/04 09:47:48;;;;;;;47.33;32.72;;;410.30;1126.40;;;;;;4931277;29;20030;-72
2021/03/04 09:50:27;;;;;;;45.05;33.35;;;435.70;1075.20;;;;;;4914563;29;20055;-72
2021/03/04 09:53:04;;;;;;;37.42;25.60;;;460.80;1075.20;;;;;;4921316;29;20028;-72
2021/03/04 09:55:39;;;;;;;39.83;26.15;;;461.30;972.80;;;;;;4914395;29;20091;-72
2021/03/04 09:58:12;;;;;;;32.35;25.95;;;461.10;972.80;;;;;;4897970;29;20437;-72
2021/03/04 10:00:38;;;;;;;35.40;24.90;;;461.30;947.20;;;;;;4906320;29;20118;-72
2021/03/04 10:03:14;;;;;;;31.05;25.20;;;461.40;998.40;;;;;;4911699;29;20542;-72
2021/03/04 10:05:50;;;;;;;29.85;22.55;;;461.50;921.60;;;;;;4915742;29;20036;-72
2021/03/04 10:08:19;;;;;;;33.72;24.52;;;461.30;921.60;;;;;;4925210;29;20028;-72
2021/03/04 10:10:49;;;;;;;32.42;24.98;;;461.50;947.20;;;;;;4929844;29;20020;-72
2021/03/04 10:13:14;;;;;;;29.83;24.23;;;486.60;921.60;;;;;;4916466;29;20049;-72
2021/03/04 10:15:42;;;;;;;26.25;21.40;;;486.40;921.60;;;;;;4910054;29;20560;-71
2021/03/04 10:18:15;;;;;;;27.08;18.42;;;486.70;844.80;;;;;;4910226;29;20072;-72
2021/03/04 10:20:46;;;;;;;26.33;18.02;;;486.90;793.60;;;;;;4910551;29;20114;-72
2021/03/04 10:23:16;;;;;;;22.98;17.42;;;486.80;819.20;;;;;;4893230;29;20048;-72
2021/03/04 10:25:43;;;;;;;26.15;18.95;;;486.90;819.20;;;;;;4910954;29;20024;-72
2021/03/04 10:28:09;;;;;;;20.63;17.30;;;487.10;793.60;;;;;;4909593;29;20016;-72
2021/03/04 10:30:37;;;;;;;21.25;16.00;;;512.10;768.00;;;;;;4906922;29;20028;-71
2021/03/04 10:33:06;;;;;;;23.23;15.38;;;512.10;742.40;;;;;;4896107;29;20032;-72
2021/03/04 10:35:35;;;;;;;20.83;15.23;;;512.60;716.80;;;;;;4908518;29;20361;-71
2021/03/04 10:38:01;;;;;;;22.92;16.35;;;537.90;716.80;;;;;;4910069;29;20047;-70
2021/03/04 10:40:26;;;;;;;19.67;15.20;;;538.20;716.80;;;;;;4903954;29;20529;-71
2021/03/04 10:42:52;;;;;;;19.08;14.38;;;563.40;716.80;;;;;;4913609;29;20068;-71
2021/03/04 10:45:19;;;;;;;19.02;15.23;;;563.90;716.80;;;;;;4909162;29;20028;-71
2021/03/04 10:47:46;;;;;;;21.98;15.25;;;589.50;665.60;;;;;;4907518;29;20052;-71
2021/03/04 10:50:18;;;;;;;123.32;29.00;;;589.40;665.60;;;;;;4909096;29;20107;-71
2021/03/04 10:52:44;;;;;;;28.08;18.70;;;589.10;665.60;;;;;;4906810;29;20083;-71
2021/03/04 10:55:11;;;;;;;30.30;16.27;;;589.50;665.60;;;;;;4913115;29;20359;-72
2021/03/04 10:57:38;;;;;;;24.35;16.90;;;589.20;691.20;;;;;;4910396;29;20417;-73
2021/03/04 11:00:09;;;;;;;20.10;15.55;;;563.70;691.20;;;;;;4906101;29;20024;-73
2021/03/04 11:02:35;;;;;;;40.65;18.50;;;563.50;716.80;;;;;;4911014;29;20466;-74
2021/03/04 11:05:01;;;;;;;25.48;17.95;;;563.80;716.80;;;;;;4904231;29;20506;-73
2021/03/04 11:07:26;;;;;;;43.08;20.67;;;563.70;742.40;;;;;;4912333;29;20051;-74
2021/03/04 11:09:53;;;;;;;27.27;18.48;;;563.40;716.80;;;;;;4906270;29;20028;-73
2021/03/04 11:12:19;;;;;;;25.27;19.05;;;563.90;742.40;;;;;;4906318;29;20059;-72
2021/03/04 11:14:45;;;;;;;23.63;19.00;;;588.80;742.40;;;;;;4913062;29;20024;-72
2021/03/04 11:17:11;;;;;;;24.40;16.98;;;564.10;716.80;;;;;;4906031;29;20048;-72
2021/03/04 11:19:37;;;;;;;20.45;15.98;;;563.90;716.80;;;;;;4910293;29;20107;-73
2021/03/04 11:22:04;;;;;;;20.05;13.32;;;563.70;742.40;;;;;;4909425;29;20473;-72
2021/03/04 11:24:29;;;;;;;22.73;14.45;;;538.40;665.60;;;;;;4910603;29;20032;-73
2021/03/04 11:26:55;;;;;;;22.00;12.88;;;538.10;665.60;;;;;;4911911;29;20039;-73
2021/03/04 11:29:21;;;;;;;14.95;11.27;;;538.10;665.60;;;;;;4915276;29;20024;-73
2021/03/04 11:31:47;;;;;;;15.18;10.73;;;538.00;640.00;;;;;;4915668;29;20103;-72
2021/03/04 11:34:12;;;;;;;23.88;16.75;;;537.60;614.40;;;;;;4919089;29;20066;-73
2021/03/04 11:36:38;;;;;;;20.45;18.23;;;538.20;588.80;;;;;;4923766;29;20038;-73
2021/03/04 11:39:05;;;;;;;22.58;12.98;;;563.40;614.40;;;;;;4903784;29;20028;-73
2021/03/04 11:41:31;;;;;;;17.08;12.70;;;538.30;614.40;;;;;;4915303;29;20024;-73
2021/03/04 11:43:57;;;;;;;17.02;13.48;;;538.30;640.00;;;;;;4915386;29;20504;-72
2021/03/04 11:46:23;;;;;;;32.83;16.40;;;512.70;665.60;;;;;;4914760;29;20090;-73
2021/03/04 11:48:50;;;;;;;24.08;15.00;;;537.70;691.20;;;;;;4926624;29;20028;-72
2021/03/04 11:51:16;;;;;;;23.77;16.05;;;537.80;691.20;;;;;;4923787;29;20028;-73
2021/03/04 11:53:42;;;;;;;21.58;16.95;;;538.20;716.80;;;;;;4911855;29;20225;-73
2021/03/04 11:56:08;;;;;;;19.00;15.80;;;563.30;691.20;;;;;;4933942;29;20535;-73
2021/03/04 11:58:33;;;;;;;20.27;13.90;;;563.40;691.20;;;;;;4928636;29;20016;-73
2021/03/04 12:00:59;;;;;;;24.48;15.00;;;563.40;691.20;;;;;;4922443;29;20107;-73
2021/03/04 12:03:25;;;;;;;18.90;13.32;;;563.20;691.20;;;;;;4918216;29;20025;-72
2021/03/04 12:05:51;;;;;;;18.65;12.38;;;563.50;640.00;;;;;;4916074;29;20516;-73
2021/03/04 12:08:17;;;;;;;26.77;13.73;;;563.40;640.00;;;;;;4930585;29;20052;-73